sensor_id;sensor_type;location;lat;lon;timestamp;P1;durP1;ratioP1;P2;durP2;ratioP2
74044;SDS011;62389;51.412;5.436;2023-01-29T00:00:05;29.13;;;14.50;;
74044;SDS011;62389;51.412;5.436;2023-01-29T00:02:35;29.83;;;13.63;;
74044;SDS011;62389;51.412;5.436;2023-01-29T00:05:01;32.00;;;14.80;;
74044;SDS011;62389;51.412;5.436;2023-01-29T00:07:28;32.33;;;13.98;;
74044;SDS011;62389;51.412;5.436;2023-01-29T00:09:54;31.60;;;14.35;;
74044;SDS011;62389;51.412;5.436;2023-01-29T00:12:19;30.08;;;13.23;;
74044;SDS011;62389;51.412;5.436;2023-01-29T00:14:44;34.17;;;15.18;;
74044;SDS011;62389;51.412;5.436;2023-01-29T00:17:10;30.88;;;13.80;;
74044;SDS011;62389;51.412;5.436;2023-01-29T00:19:35;31.17;;;14.40;;
74044;SDS011;62389;51.412;5.436;2023-01-29T00:22:00;29.08;;;14.98;;
74044;SDS011;62389;51.412;5.436;2023-01-29T00:24:26;34.75;;;15.60;;
74044;SDS011;62389;51.412;5.436;2023-01-29T00:26:51;35.50;;;15.32;;
74044;SDS011;62389;51.412;5.436;2023-01-29T00:29:16;36.40;;;14.95;;
74044;SDS011;62389;51.412;5.436;2023-01-29T00:31:43;31.67;;;15.23;;
74044;SDS011;62389;51.412;5.436;2023-01-29T00:34:09;33.78;;;15.55;;
74044;SDS011;62389;51.412;5.436;2023-01-29T00:36:34;30.10;;;14.68;;
74044;SDS011;62389;51.412;5.436;2023-01-29T00:38:59;28.45;;;13.52;;
74044;SDS011;62389;51.412;5.436;2023-01-29T00:41:34;31.38;;;14.55;;
74044;SDS011;62389;51.412;5.436;2023-01-29T00:44:18;28.83;;;14.43;;
74044;SDS011;62389;51.412;5.436;2023-01-29T00:47:02;34.55;;;14.57;;
74044;SDS011;62389;51.412;5.436;2023-01-29T00:49:28;36.28;;;14.90;;
74044;SDS011;62389;51.412;5.436;2023-01-29T00:51:57;31.98;;;15.35;;
74044;SDS011;62389;51.412;5.436;2023-01-29T00:54:41;34.67;;;15.73;;
74044;SDS011;62389;51.412;5.436;2023-01-29T00:57:06;33.30;;;16.33;;
74044;SDS011;62389;51.412;5.436;2023-01-29T00:59:31;33.72;;;15.15;;
74044;SDS011;62389;51.412;5.436;2023-01-29T01:01:57;34.05;;;15.05;;
74044;SDS011;62389;51.412;5.436;2023-01-29T01:04:41;34.08;;;15.43;;
74044;SDS011;62389;51.412;5.436;2023-01-29T01:07:06;30.70;;;15.23;;
74044;SDS011;62389;51.412;5.436;2023-01-29T01:09:34;34.45;;;16.17;;
74044;SDS011;62389;51.412;5.436;2023-01-29T01:12:18;30.88;;;15.35;;
74044;SDS011;62389;51.412;5.436;2023-01-29T01:14:43;33.17;;;15.30;;
74044;SDS011;62389;51.412;5.436;2023-01-29T01:17:10;34.97;;;15.45;;
74044;SDS011;62389;51.412;5.436;2023-01-29T01:19:35;31.98;;;15.57;;
74044;SDS011;62389;51.412;5.436;2023-01-29T01:22:00;34.13;;;14.98;;
74044;SDS011;62389;51.412;5.436;2023-01-29T01:24:26;31.58;;;15.25;;
74044;SDS011;62389;51.412;5.436;2023-01-29T01:26:51;32.00;;;15.02;;
74044;SDS011;62389;51.412;5.436;2023-01-29T01:29:17;34.20;;;16.23;;
74044;SDS011;62389;51.412;5.436;2023-01-29T01:31:42;38.30;;;15.27;;
74044;SDS011;62389;51.412;5.436;2023-01-29T01:34:07;37.47;;;16.35;;
74044;SDS011;62389;51.412;5.436;2023-01-29T01:36:33;34.42;;;16.02;;
74044;SDS011;62389;51.412;5.436;2023-01-29T01:38:58;31.95;;;15.25;;
74044;SDS011;62389;51.412;5.436;2023-01-29T01:41:23;38.30;;;17.83;;
74044;SDS011;62389;51.412;5.436;2023-01-29T01:43:53;38.33;;;14.88;;
74044;SDS011;62389;51.412;5.436;2023-01-29T01:46:21;35.95;;;15.80;;
74044;SDS011;62389;51.412;5.436;2023-01-29T01:48:49;39.58;;;16.92;;
74044;SDS011;62389;51.412;5.436;2023-01-29T01:51:18;34.85;;;15.02;;
74044;SDS011;62389;51.412;5.436;2023-01-29T01:53:49;34.45;;;17.42;;
74044;SDS011;62389;51.412;5.436;2023-01-29T01:56:22;37.53;;;16.77;;
74044;SDS011;62389;51.412;5.436;2023-01-29T01:58:55;35.58;;;16.80;;
74044;SDS011;62389;51.412;5.436;2023-01-29T02:01:22;34.67;;;17.27;;
74044;SDS011;62389;51.412;5.436;2023-01-29T02:03:55;36.08;;;17.33;;
74044;SDS011;62389;51.412;5.436;2023-01-29T02:06:42;37.72;;;16.80;;
74044;SDS011;62389;51.412;5.436;2023-01-29T02:09:31;39.83;;;18.58;;
74044;SDS011;62389;51.412;5.436;2023-01-29T02:12:01;36.42;;;18.35;;
74044;SDS011;62389;51.412;5.436;2023-01-29T02:14:32;40.85;;;16.52;;
74044;SDS011;62389;51.412;5.436;2023-01-29T02:17:03;36.85;;;17.13;;
74044;SDS011;62389;51.412;5.436;2023-01-29T02:19:32;37.95;;;16.60;;
74044;SDS011;62389;51.412;5.436;2023-01-29T02:30:32;41.10;;;17.83;;
74044;SDS011;62389;51.412;5.436;2023-01-29T02:33:20;38.17;;;18.15;;
74044;SDS011;62389;51.412;5.436;2023-01-29T02:38:46;40.42;;;19.02;;
74044;SDS011;62389;51.412;5.436;2023-01-29T02:41:29;36.00;;;17.40;;
74044;SDS011;62389;51.412;5.436;2023-01-29T02:44:02;40.30;;;18.80;;
74044;SDS011;62389;51.412;5.436;2023-01-29T02:46:47;41.63;;;17.95;;
74044;SDS011;62389;51.412;5.436;2023-01-29T02:52:11;43.03;;;18.48;;
74044;SDS011;62389;51.412;5.436;2023-01-29T02:54:47;40.03;;;17.42;;
74044;SDS011;62389;51.412;5.436;2023-01-29T02:57:22;38.92;;;17.60;;
74044;SDS011;62389;51.412;5.436;2023-01-29T02:59:54;39.72;;;18.67;;
74044;SDS011;62389;51.412;5.436;2023-01-29T03:02:25;39.65;;;18.33;;
74044;SDS011;62389;51.412;5.436;2023-01-29T03:05:00;44.00;;;17.85;;
74044;SDS011;62389;51.412;5.436;2023-01-29T03:07:31;36.42;;;17.33;;
74044;SDS011;62389;51.412;5.436;2023-01-29T03:10:16;37.40;;;17.95;;
74044;SDS011;62389;51.412;5.436;2023-01-29T03:12:56;39.55;;;17.15;;
74044;SDS011;62389;51.412;5.436;2023-01-29T03:15:28;38.67;;;16.52;;
74044;SDS011;62389;51.412;5.436;2023-01-29T03:20:36;44.08;;;19.55;;
74044;SDS011;62389;51.412;5.436;2023-01-29T03:23:13;37.72;;;17.52;;
74044;SDS011;62389;51.412;5.436;2023-01-29T03:26:19;39.47;;;16.92;;
74044;SDS011;62389;51.412;5.436;2023-01-29T03:29:05;41.70;;;17.52;;
74044;SDS011;62389;51.412;5.436;2023-01-29T03:34:32;37.75;;;17.20;;
74044;SDS011;62389;51.412;5.436;2023-01-29T03:37:16;37.33;;;16.95;;
74044;SDS011;62389;51.412;5.436;2023-01-29T03:39:49;40.88;;;18.95;;
74044;SDS011;62389;51.412;5.436;2023-01-29T03:42:31;38.70;;;17.90;;
74044;SDS011;62389;51.412;5.436;2023-01-29T03:50:55;38.67;;;18.30;;
74044;SDS011;62389;51.412;5.436;2023-01-29T03:53:42;35.65;;;16.13;;
74044;SDS011;62389;51.412;5.436;2023-01-29T03:56:37;36.03;;;16.80;;
74044;SDS011;62389;51.412;5.436;2023-01-29T03:59:30;40.60;;;17.50;;
74044;SDS011;62389;51.412;5.436;2023-01-29T04:02:06;33.58;;;15.43;;
74044;SDS011;62389;51.412;5.436;2023-01-29T04:04:38;42.72;;;17.92;;
74044;SDS011;62389;51.412;5.436;2023-01-29T04:09:39;34.70;;;15.60;;
74044;SDS011;62389;51.412;5.436;2023-01-29T04:12:20;39.78;;;17.38;;
74044;SDS011;62389;51.412;5.436;2023-01-29T04:14:50;40.60;;;17.77;;
74044;SDS011;62389;51.412;5.436;2023-01-29T04:17:22;36.13;;;16.40;;
74044;SDS011;62389;51.412;5.436;2023-01-29T04:19:53;38.88;;;17.38;;
74044;SDS011;62389;51.412;5.436;2023-01-29T04:22:21;36.08;;;15.63;;
74044;SDS011;62389;51.412;5.436;2023-01-29T04:24:50;34.13;;;16.58;;
74044;SDS011;62389;51.412;5.436;2023-01-29T04:35:30;32.03;;;14.57;;
74044;SDS011;62389;51.412;5.436;2023-01-29T04:41:21;33.92;;;14.40;;
74044;SDS011;62389;51.412;5.436;2023-01-29T04:52:21;34.60;;;16.48;;
74044;SDS011;62389;51.412;5.436;2023-01-29T04:55:07;39.88;;;17.00;;
74044;SDS011;62389;51.412;5.436;2023-01-29T04:58:02;33.88;;;14.65;;
74044;SDS011;62389;51.412;5.436;2023-01-29T05:00:36;32.70;;;14.82;;
74044;SDS011;62389;51.412;5.436;2023-01-29T05:03:04;36.58;;;15.90;;
74044;SDS011;62389;51.412;5.436;2023-01-29T05:05:33;32.30;;;14.27;;
74044;SDS011;62389;51.412;5.436;2023-01-29T05:08:00;43.40;;;19.00;;
74044;SDS011;62389;51.412;5.436;2023-01-29T05:10:27;34.80;;;15.70;;
74044;SDS011;62389;51.412;5.436;2023-01-29T05:12:55;35.70;;;17.10;;
74044;SDS011;62389;51.412;5.436;2023-01-29T05:16:07;39.90;;;16.67;;
74044;SDS011;62389;51.412;5.436;2023-01-29T05:18:20;38.83;;;17.27;;
74044;SDS011;62389;51.412;5.436;2023-01-29T05:20:45;35.00;;;16.33;;
74044;SDS011;62389;51.412;5.436;2023-01-29T05:23:15;37.50;;;16.60;;
74044;SDS011;62389;51.412;5.436;2023-01-29T05:25:42;35.55;;;15.85;;
74044;SDS011;62389;51.412;5.436;2023-01-29T05:28:08;34.10;;;15.10;;
74044;SDS011;62389;51.412;5.436;2023-01-29T05:30:43;35.40;;;16.10;;
74044;SDS011;62389;51.412;5.436;2023-01-29T05:33:20;30.58;;;14.48;;
74044;SDS011;62389;51.412;5.436;2023-01-29T05:35:53;37.17;;;15.88;;
74044;SDS011;62389;51.412;5.436;2023-01-29T05:38:19;34.45;;;14.68;;
74044;SDS011;62389;51.412;5.436;2023-01-29T05:40:45;38.42;;;16.88;;
74044;SDS011;62389;51.412;5.436;2023-01-29T05:43:15;36.42;;;14.70;;
74044;SDS011;62389;51.412;5.436;2023-01-29T05:45:42;36.13;;;14.60;;
74044;SDS011;62389;51.412;5.436;2023-01-29T05:48:15;33.65;;;16.23;;
74044;SDS011;62389;51.412;5.436;2023-01-29T05:50:40;35.60;;;15.23;;
74044;SDS011;62389;51.412;5.436;2023-01-29T05:53:06;34.55;;;15.32;;
74044;SDS011;62389;51.412;5.436;2023-01-29T05:55:31;32.97;;;13.25;;
74044;SDS011;62389;51.412;5.436;2023-01-29T05:57:56;33.58;;;14.20;;
74044;SDS011;62389;51.412;5.436;2023-01-29T06:00:22;39.67;;;16.50;;
74044;SDS011;62389;51.412;5.436;2023-01-29T06:02:48;33.50;;;15.57;;
74044;SDS011;62389;51.412;5.436;2023-01-29T06:05:13;33.85;;;16.25;;
74044;SDS011;62389;51.412;5.436;2023-01-29T06:07:39;37.00;;;16.33;;
74044;SDS011;62389;51.412;5.436;2023-01-29T06:10:09;34.70;;;14.52;;
74044;SDS011;62389;51.412;5.436;2023-01-29T06:12:40;33.78;;;15.02;;
74044;SDS011;62389;51.412;5.436;2023-01-29T06:15:07;36.42;;;14.63;;
74044;SDS011;62389;51.412;5.436;2023-01-29T06:17:32;36.70;;;16.17;;
74044;SDS011;62389;51.412;5.436;2023-01-29T06:19:58;33.72;;;15.40;;
74044;SDS011;62389;51.412;5.436;2023-01-29T06:22:23;33.65;;;14.18;;
74044;SDS011;62389;51.412;5.436;2023-01-29T06:24:48;32.05;;;15.75;;
74044;SDS011;62389;51.412;5.436;2023-01-29T06:27:14;36.60;;;15.57;;
74044;SDS011;62389;51.412;5.436;2023-01-29T06:29:39;34.35;;;15.32;;
74044;SDS011;62389;51.412;5.436;2023-01-29T06:32:04;35.60;;;14.23;;
74044;SDS011;62389;51.412;5.436;2023-01-29T06:34:30;37.15;;;15.75;;
74044;SDS011;62389;51.412;5.436;2023-01-29T06:36:55;34.25;;;15.48;;
74044;SDS011;62389;51.412;5.436;2023-01-29T06:39:21;32.78;;;14.75;;
74044;SDS011;62389;51.412;5.436;2023-01-29T06:41:46;34.70;;;15.02;;
74044;SDS011;62389;51.412;5.436;2023-01-29T06:44:12;35.35;;;15.00;;
74044;SDS011;62389;51.412;5.436;2023-01-29T06:46:37;37.78;;;15.57;;
74044;SDS011;62389;51.412;5.436;2023-01-29T06:49:02;36.15;;;14.57;;
74044;SDS011;62389;51.412;5.436;2023-01-29T06:51:28;37.30;;;16.10;;
74044;SDS011;62389;51.412;5.436;2023-01-29T06:53:53;33.92;;;15.02;;
74044;SDS011;62389;51.412;5.436;2023-01-29T06:56:20;34.88;;;15.77;;
74044;SDS011;62389;51.412;5.436;2023-01-29T06:58:46;33.38;;;15.52;;
74044;SDS011;62389;51.412;5.436;2023-01-29T07:01:11;33.78;;;14.70;;
74044;SDS011;62389;51.412;5.436;2023-01-29T07:03:37;38.28;;;17.08;;
74044;SDS011;62389;51.412;5.436;2023-01-29T07:06:03;41.30;;;16.35;;
74044;SDS011;62389;51.412;5.436;2023-01-29T07:08:29;35.75;;;15.45;;
74044;SDS011;62389;51.412;5.436;2023-01-29T07:10:58;36.67;;;16.73;;
74044;SDS011;62389;51.412;5.436;2023-01-29T07:13:24;39.85;;;17.58;;
74044;SDS011;62389;51.412;5.436;2023-01-29T07:15:50;31.25;;;15.40;;
74044;SDS011;62389;51.412;5.436;2023-01-29T07:18:15;40.13;;;16.38;;
74044;SDS011;62389;51.412;5.436;2023-01-29T07:20:41;35.92;;;16.02;;
74044;SDS011;62389;51.412;5.436;2023-01-29T07:23:10;35.95;;;16.85;;
74044;SDS011;62389;51.412;5.436;2023-01-29T07:25:37;37.65;;;17.10;;
74044;SDS011;62389;51.412;5.436;2023-01-29T07:28:03;36.30;;;16.08;;
74044;SDS011;62389;51.412;5.436;2023-01-29T07:30:29;41.40;;;19.30;;
74044;SDS011;62389;51.412;5.436;2023-01-29T07:32:54;39.70;;;16.77;;
74044;SDS011;62389;51.412;5.436;2023-01-29T07:35:20;37.15;;;14.80;;
74044;SDS011;62389;51.412;5.436;2023-01-29T07:37:49;36.67;;;15.52;;
74044;SDS011;62389;51.412;5.436;2023-01-29T07:40:15;40.40;;;17.13;;
74044;SDS011;62389;51.412;5.436;2023-01-29T07:42:40;43.28;;;18.40;;
74044;SDS011;62389;51.412;5.436;2023-01-29T07:45:08;38.28;;;15.75;;
74044;SDS011;62389;51.412;5.436;2023-01-29T07:47:34;38.67;;;15.65;;
74044;SDS011;62389;51.412;5.436;2023-01-29T07:49:59;38.65;;;17.08;;
74044;SDS011;62389;51.412;5.436;2023-01-29T07:52:25;35.55;;;16.58;;
74044;SDS011;62389;51.412;5.436;2023-01-29T07:54:50;40.97;;;17.05;;
74044;SDS011;62389;51.412;5.436;2023-01-29T07:57:16;42.63;;;17.50;;
74044;SDS011;62389;51.412;5.436;2023-01-29T07:59:41;38.88;;;16.77;;
74044;SDS011;62389;51.412;5.436;2023-01-29T08:02:07;37.97;;;17.20;;
74044;SDS011;62389;51.412;5.436;2023-01-29T08:04:34;37.88;;;16.52;;
74044;SDS011;62389;51.412;5.436;2023-01-29T08:06:59;36.65;;;15.55;;
74044;SDS011;62389;51.412;5.436;2023-01-29T08:09:24;38.78;;;16.85;;
74044;SDS011;62389;51.412;5.436;2023-01-29T08:11:50;36.85;;;16.05;;
74044;SDS011;62389;51.412;5.436;2023-01-29T08:14:15;40.00;;;16.73;;
74044;SDS011;62389;51.412;5.436;2023-01-29T08:16:40;38.22;;;16.98;;
74044;SDS011;62389;51.412;5.436;2023-01-29T08:19:06;43.47;;;18.05;;
74044;SDS011;62389;51.412;5.436;2023-01-29T08:21:31;38.75;;;16.42;;
74044;SDS011;62389;51.412;5.436;2023-01-29T08:23:56;37.00;;;16.15;;
74044;SDS011;62389;51.412;5.436;2023-01-29T08:26:22;34.42;;;16.20;;
74044;SDS011;62389;51.412;5.436;2023-01-29T08:28:47;38.10;;;16.80;;
74044;SDS011;62389;51.412;5.436;2023-01-29T08:31:13;38.05;;;16.90;;
74044;SDS011;62389;51.412;5.436;2023-01-29T08:33:44;33.60;;;15.43;;
74044;SDS011;62389;51.412;5.436;2023-01-29T08:36:09;34.13;;;16.23;;
74044;SDS011;62389;51.412;5.436;2023-01-29T08:38:35;35.42;;;17.35;;
74044;SDS011;62389;51.412;5.436;2023-01-29T08:41:00;35.47;;;16.38;;
74044;SDS011;62389;51.412;5.436;2023-01-29T08:43:26;38.70;;;16.30;;
74044;SDS011;62389;51.412;5.436;2023-01-29T08:45:51;38.15;;;16.80;;
74044;SDS011;62389;51.412;5.436;2023-01-29T08:48:16;32.92;;;16.83;;
74044;SDS011;62389;51.412;5.436;2023-01-29T08:50:42;33.97;;;14.60;;
74044;SDS011;62389;51.412;5.436;2023-01-29T08:53:07;35.35;;;15.13;;
74044;SDS011;62389;51.412;5.436;2023-01-29T08:55:40;38.13;;;16.13;;
74044;SDS011;62389;51.412;5.436;2023-01-29T08:58:06;37.75;;;16.08;;
74044;SDS011;62389;51.412;5.436;2023-01-29T09:00:33;37.17;;;16.70;;
74044;SDS011;62389;51.412;5.436;2023-01-29T09:02:59;38.35;;;16.52;;
74044;SDS011;62389;51.412;5.436;2023-01-29T09:05:25;37.80;;;17.85;;
74044;SDS011;62389;51.412;5.436;2023-01-29T09:07:52;38.67;;;17.05;;
74044;SDS011;62389;51.412;5.436;2023-01-29T09:10:17;34.70;;;15.93;;
74044;SDS011;62389;51.412;5.436;2023-01-29T09:12:43;37.38;;;16.88;;
74044;SDS011;62389;51.412;5.436;2023-01-29T09:15:08;34.88;;;15.68;;
74044;SDS011;62389;51.412;5.436;2023-01-29T09:17:34;35.55;;;16.27;;
74044;SDS011;62389;51.412;5.436;2023-01-29T09:19:59;35.45;;;16.83;;
74044;SDS011;62389;51.412;5.436;2023-01-29T09:22:25;36.78;;;17.15;;
74044;SDS011;62389;51.412;5.436;2023-01-29T09:24:50;38.63;;;18.02;;
74044;SDS011;62389;51.412;5.436;2023-01-29T09:27:16;39.85;;;19.50;;
74044;SDS011;62389;51.412;5.436;2023-01-29T09:29:41;37.92;;;16.48;;
74044;SDS011;62389;51.412;5.436;2023-01-29T09:32:06;35.17;;;16.58;;
74044;SDS011;62389;51.412;5.436;2023-01-29T09:34:32;34.92;;;17.02;;
74044;SDS011;62389;51.412;5.436;2023-01-29T09:36:57;40.80;;;18.42;;
74044;SDS011;62389;51.412;5.436;2023-01-29T09:39:23;39.70;;;18.55;;
74044;SDS011;62389;51.412;5.436;2023-01-29T09:47:24;36.00;;;16.75;;
74044;SDS011;62389;51.412;5.436;2023-01-29T09:49:51;35.15;;;16.23;;
74044;SDS011;62389;51.412;5.436;2023-01-29T09:52:26;33.45;;;15.90;;
74044;SDS011;62389;51.412;5.436;2023-01-29T09:55:01;31.52;;;16.55;;
74044;SDS011;62389;51.412;5.436;2023-01-29T10:00:16;34.70;;;16.73;;
74044;SDS011;62389;51.412;5.436;2023-01-29T10:08:41;33.92;;;16.45;;
74044;SDS011;62389;51.412;5.436;2023-01-29T10:24:46;32.30;;;14.90;;
74044;SDS011;62389;51.412;5.436;2023-01-29T10:27:18;33.30;;;15.13;;
74044;SDS011;62389;51.412;5.436;2023-01-29T10:29:46;34.22;;;15.27;;
74044;SDS011;62389;51.412;5.436;2023-01-29T10:32:20;28.60;;;13.98;;
74044;SDS011;62389;51.412;5.436;2023-01-29T10:34:50;31.48;;;16.35;;
74044;SDS011;62389;51.412;5.436;2023-01-29T10:37:22;31.92;;;16.02;;
74044;SDS011;62389;51.412;5.436;2023-01-29T10:39:54;33.03;;;16.08;;
74044;SDS011;62389;51.412;5.436;2023-01-29T10:42:45;33.30;;;16.48;;
74044;SDS011;62389;51.412;5.436;2023-01-29T10:45:19;28.25;;;15.65;;
74044;SDS011;62389;51.412;5.436;2023-01-29T10:48:24;31.42;;;15.50;;
74044;SDS011;62389;51.412;5.436;2023-01-29T11:02:16;29.77;;;13.90;;
74044;SDS011;62389;51.412;5.436;2023-01-29T11:04:45;31.95;;;15.73;;
74044;SDS011;62389;51.412;5.436;2023-01-29T11:07:11;28.30;;;13.77;;
74044;SDS011;62389;51.412;5.436;2023-01-29T11:09:53;34.60;;;15.70;;
74044;SDS011;62389;51.412;5.436;2023-01-29T11:12:26;28.92;;;13.63;;
74044;SDS011;62389;51.412;5.436;2023-01-29T11:15:05;34.38;;;15.68;;
74044;SDS011;62389;51.412;5.436;2023-01-29T11:17:59;32.67;;;14.73;;
74044;SDS011;62389;51.412;5.436;2023-01-29T11:20:29;30.85;;;14.48;;
74044;SDS011;62389;51.412;5.436;2023-01-29T11:22:55;34.55;;;16.90;;
74044;SDS011;62389;51.412;5.436;2023-01-29T11:25:21;35.58;;;15.48;;
74044;SDS011;62389;51.412;5.436;2023-01-29T11:30:38;28.38;;;14.20;;
74044;SDS011;62389;51.412;5.436;2023-01-29T11:35:36;30.65;;;16.17;;
74044;SDS011;62389;51.412;5.436;2023-01-29T11:40:39;34.70;;;16.05;;
74044;SDS011;62389;51.412;5.436;2023-01-29T11:43:12;31.50;;;15.25;;
74044;SDS011;62389;51.412;5.436;2023-01-29T11:45:50;34.03;;;17.33;;
74044;SDS011;62389;51.412;5.436;2023-01-29T11:48:19;33.85;;;17.25;;
74044;SDS011;62389;51.412;5.436;2023-01-29T11:50:51;28.52;;;14.07;;
74044;SDS011;62389;51.412;5.436;2023-01-29T11:55:58;36.20;;;17.98;;
74044;SDS011;62389;51.412;5.436;2023-01-29T11:58:28;33.30;;;16.80;;
74044;SDS011;62389;51.412;5.436;2023-01-29T12:00:56;33.17;;;15.57;;
74044;SDS011;62389;51.412;5.436;2023-01-29T12:03:32;30.67;;;15.13;;
74044;SDS011;62389;51.412;5.436;2023-01-29T12:06:07;29.40;;;14.82;;
74044;SDS011;62389;51.412;5.436;2023-01-29T12:08:51;30.65;;;16.30;;
74044;SDS011;62389;51.412;5.436;2023-01-29T12:11:24;31.98;;;15.55;;
74044;SDS011;62389;51.412;5.436;2023-01-29T12:13:56;29.83;;;14.68;;
74044;SDS011;62389;51.412;5.436;2023-01-29T12:19:01;27.55;;;13.27;;
74044;SDS011;62389;51.412;5.436;2023-01-29T12:21:34;31.17;;;15.68;;
74044;SDS011;62389;51.412;5.436;2023-01-29T12:29:24;30.65;;;14.90;;
74044;SDS011;62389;51.412;5.436;2023-01-29T12:34:41;28.42;;;13.30;;
74044;SDS011;62389;51.412;5.436;2023-01-29T12:39:43;29.30;;;14.30;;
74044;SDS011;62389;51.412;5.436;2023-01-29T12:42:18;30.42;;;15.13;;
74044;SDS011;62389;51.412;5.436;2023-01-29T12:44:57;26.13;;;14.85;;
74044;SDS011;62389;51.412;5.436;2023-01-29T12:49:54;33.08;;;15.43;;
74044;SDS011;62389;51.412;5.436;2023-01-29T12:52:32;26.88;;;14.18;;
74044;SDS011;62389;51.412;5.436;2023-01-29T12:55:51;23.80;;;12.40;;
74044;SDS011;62389;51.412;5.436;2023-01-29T12:58:10;31.77;;;15.45;;
74044;SDS011;62389;51.412;5.436;2023-01-29T13:00:39;32.88;;;14.60;;
74044;SDS011;62389;51.412;5.436;2023-01-29T13:08:18;27.70;;;15.90;;
74044;SDS011;62389;51.412;5.436;2023-01-29T13:10:48;32.72;;;15.32;;
74044;SDS011;62389;51.412;5.436;2023-01-29T13:13:20;34.58;;;15.57;;
74044;SDS011;62389;51.412;5.436;2023-01-29T13:15:48;31.10;;;15.45;;
74044;SDS011;62389;51.412;5.436;2023-01-29T13:21:01;32.15;;;15.43;;
74044;SDS011;62389;51.412;5.436;2023-01-29T13:23:38;30.30;;;14.82;;
74044;SDS011;62389;51.412;5.436;2023-01-29T13:26:08;35.33;;;15.38;;
74044;SDS011;62389;51.412;5.436;2023-01-29T13:28:33;30.42;;;14.10;;
74044;SDS011;62389;51.412;5.436;2023-01-29T13:31:10;23.88;;;12.85;;
74044;SDS011;62389;51.412;5.436;2023-01-29T13:33:51;29.80;;;14.82;;
74044;SDS011;62389;51.412;5.436;2023-01-29T13:36:27;27.67;;;13.95;;
74044;SDS011;62389;51.412;5.436;2023-01-29T13:39:04;29.35;;;14.60;;
74044;SDS011;62389;51.412;5.436;2023-01-29T13:41:32;32.05;;;14.38;;
74044;SDS011;62389;51.412;5.436;2023-01-29T13:43:59;26.50;;;14.40;;
74044;SDS011;62389;51.412;5.436;2023-01-29T13:46:25;33.17;;;14.60;;
74044;SDS011;62389;51.412;5.436;2023-01-29T13:48:50;29.50;;;14.50;;
74044;SDS011;62389;51.412;5.436;2023-01-29T13:51:19;31.77;;;14.30;;
74044;SDS011;62389;51.412;5.436;2023-01-29T13:54:06;32.40;;;16.00;;
74044;SDS011;62389;51.412;5.436;2023-01-29T13:56:45;28.60;;;13.82;;
74044;SDS011;62389;51.412;5.436;2023-01-29T14:02:23;26.92;;;14.90;;
74044;SDS011;62389;51.412;5.436;2023-01-29T14:04:50;26.25;;;14.23;;
74044;SDS011;62389;51.412;5.436;2023-01-29T14:12:47;28.67;;;13.82;;
74044;SDS011;62389;51.412;5.436;2023-01-29T14:15:17;26.42;;;13.65;;
74044;SDS011;62389;51.412;5.436;2023-01-29T14:20:19;28.40;;;13.82;;
74044;SDS011;62389;51.412;5.436;2023-01-29T14:22:54;28.77;;;13.65;;
74044;SDS011;62389;51.412;5.436;2023-01-29T14:25:27;28.92;;;12.40;;
74044;SDS011;62389;51.412;5.436;2023-01-29T14:27:55;29.23;;;13.82;;
74044;SDS011;62389;51.412;5.436;2023-01-29T14:30:22;31.63;;;13.63;;
74044;SDS011;62389;51.412;5.436;2023-01-29T14:32:49;30.95;;;13.93;;
74044;SDS011;62389;51.412;5.436;2023-01-29T14:35:19;27.58;;;14.00;;
74044;SDS011;62389;51.412;5.436;2023-01-29T14:37:59;30.13;;;14.07;;
74044;SDS011;62389;51.412;5.436;2023-01-29T14:45:44;30.00;;;13.98;;
74044;SDS011;62389;51.412;5.436;2023-01-29T14:53:05;29.47;;;13.67;;
74044;SDS011;62389;51.412;5.436;2023-01-29T15:01:01;31.92;;;13.48;;
74044;SDS011;62389;51.412;5.436;2023-01-29T15:03:35;29.63;;;14.25;;
74044;SDS011;62389;51.412;5.436;2023-01-29T15:06:05;27.10;;;13.90;;
74044;SDS011;62389;51.412;5.436;2023-01-29T15:11:36;33.08;;;15.05;;
74044;SDS011;62389;51.412;5.436;2023-01-29T15:16:58;27.50;;;12.98;;
74044;SDS011;62389;51.412;5.436;2023-01-29T15:19:34;27.83;;;13.18;;
74044;SDS011;62389;51.412;5.436;2023-01-29T15:22:08;26.60;;;13.93;;
74044;SDS011;62389;51.412;5.436;2023-01-29T15:24:34;30.55;;;12.70;;
74044;SDS011;62389;51.412;5.436;2023-01-29T15:27:00;25.58;;;11.85;;
74044;SDS011;62389;51.412;5.436;2023-01-29T15:29:27;29.60;;;13.25;;
74044;SDS011;62389;51.412;5.436;2023-01-29T15:31:53;28.27;;;14.23;;
74044;SDS011;62389;51.412;5.436;2023-01-29T15:36:46;32.10;;;12.48;;
74044;SDS011;62389;51.412;5.436;2023-01-29T15:39:14;29.92;;;13.68;;
74044;SDS011;62389;51.412;5.436;2023-01-29T15:41:41;24.00;;;12.25;;
74044;SDS011;62389;51.412;5.436;2023-01-29T15:44:12;28.65;;;13.73;;
74044;SDS011;62389;51.412;5.436;2023-01-29T15:46:48;27.08;;;13.00;;
74044;SDS011;62389;51.412;5.436;2023-01-29T15:49:36;26.02;;;12.15;;
74044;SDS011;62389;51.412;5.436;2023-01-29T15:52:05;23.58;;;11.65;;
74044;SDS011;62389;51.412;5.436;2023-01-29T15:54:36;27.70;;;12.48;;
74044;SDS011;62389;51.412;5.436;2023-01-29T15:57:01;26.35;;;13.43;;
74044;SDS011;62389;51.412;5.436;2023-01-29T15:59:34;26.00;;;12.38;;
74044;SDS011;62389;51.412;5.436;2023-01-29T16:05:23;28.02;;;11.88;;
74044;SDS011;62389;51.412;5.436;2023-01-29T16:07:51;26.92;;;12.13;;
74044;SDS011;62389;51.412;5.436;2023-01-29T16:10:20;22.77;;;11.15;;
74044;SDS011;62389;51.412;5.436;2023-01-29T16:12:48;28.63;;;11.82;;
74044;SDS011;62389;51.412;5.436;2023-01-29T16:17:58;23.98;;;12.82;;
74044;SDS011;62389;51.412;5.436;2023-01-29T16:20:38;24.95;;;11.45;;
74044;SDS011;62389;51.412;5.436;2023-01-29T16:23:15;24.45;;;11.23;;
74044;SDS011;62389;51.412;5.436;2023-01-29T16:25:42;27.83;;;11.95;;
74044;SDS011;62389;51.412;5.436;2023-01-29T16:28:08;26.58;;;13.50;;
74044;SDS011;62389;51.412;5.436;2023-01-29T16:30:35;26.40;;;12.98;;
74044;SDS011;62389;51.412;5.436;2023-01-29T16:33:02;23.92;;;11.15;;
74044;SDS011;62389;51.412;5.436;2023-01-29T16:35:29;18.75;;;9.38;;
74044;SDS011;62389;51.412;5.436;2023-01-29T16:37:56;27.33;;;12.95;;
74044;SDS011;62389;51.412;5.436;2023-01-29T16:45:55;20.75;;;11.10;;
74044;SDS011;62389;51.412;5.436;2023-01-29T16:48:30;21.05;;;9.48;;
74044;SDS011;62389;51.412;5.436;2023-01-29T16:51:03;21.75;;;10.98;;
74044;SDS011;62389;51.412;5.436;2023-01-29T16:53:51;23.58;;;11.23;;
74044;SDS011;62389;51.412;5.436;2023-01-29T16:56:22;21.90;;;11.40;;
74044;SDS011;62389;51.412;5.436;2023-01-29T16:58:50;22.38;;;11.45;;
74044;SDS011;62389;51.412;5.436;2023-01-29T17:01:17;27.00;;;13.00;;
74044;SDS011;62389;51.412;5.436;2023-01-29T17:03:46;29.10;;;12.85;;
74044;SDS011;62389;51.412;5.436;2023-01-29T17:06:21;31.58;;;13.07;;
74044;SDS011;62389;51.412;5.436;2023-01-29T17:08:48;24.98;;;12.07;;
74044;SDS011;62389;51.412;5.436;2023-01-29T17:11:22;19.65;;;12.68;;
74044;SDS011;62389;51.412;5.436;2023-01-29T17:13:51;24.05;;;12.50;;
74044;SDS011;62389;51.412;5.436;2023-01-29T17:18:49;21.42;;;10.75;;
74044;SDS011;62389;51.412;5.436;2023-01-29T17:21:15;17.90;;;8.90;;
74044;SDS011;62389;51.412;5.436;2023-01-29T17:23:40;22.40;;;10.55;;
74044;SDS011;62389;51.412;5.436;2023-01-29T17:26:06;24.02;;;12.88;;
74044;SDS011;62389;51.412;5.436;2023-01-29T17:28:34;23.35;;;11.18;;